sensor_id;sensor_type;location;lat;lon;timestamp;temperature;humidity
45785;DHT22;31489;51.404;5.474;2022-10-16T00:01:28;17.00;73.50
45785;DHT22;31489;51.404;5.474;2022-10-16T00:03:55;17.00;73.60
45785;DHT22;31489;51.404;5.474;2022-10-16T00:06:22;17.00;73.60
45785;DHT22;31489;51.404;5.474;2022-10-16T00:08:48;17.00;73.60
45785;DHT22;31489;51.404;5.474;2022-10-16T00:11:21;16.90;73.60
45785;DHT22;31489;51.404;5.474;2022-10-16T00:13:49;17.00;73.60
45785;DHT22;31489;51.404;5.474;2022-10-16T00:16:15;16.90;73.60
45785;DHT22;31489;51.404;5.474;2022-10-16T00:18:41;16.90;73.50
45785;DHT22;31489;51.404;5.474;2022-10-16T00:21:13;16.90;73.60
45785;DHT22;31489;51.404;5.474;2022-10-16T00:23:39;16.90;73.80
45785;DHT22;31489;51.404;5.474;2022-10-16T00:26:07;16.90;73.80
45785;DHT22;31489;51.404;5.474;2022-10-16T00:28:34;16.90;73.90
45785;DHT22;31489;51.404;5.474;2022-10-16T00:31:07;16.90;73.90
45785;DHT22;31489;51.404;5.474;2022-10-16T00:33:33;16.90;73.90
45785;DHT22;31489;51.404;5.474;2022-10-16T00:36:00;16.90;74.00
45785;DHT22;31489;51.404;5.474;2022-10-16T00:38:26;16.90;74.00
45785;DHT22;31489;51.404;5.474;2022-10-16T00:40:51;16.80;73.70
45785;DHT22;31489;51.404;5.474;2022-10-16T00:43:40;16.80;73.50
45785;DHT22;31489;51.404;5.474;2022-10-16T00:51:35;16.80;73.30
45785;DHT22;31489;51.404;5.474;2022-10-16T00:54:04;16.80;73.30
45785;DHT22;31489;51.404;5.474;2022-10-16T00:56:33;16.80;73.40
45785;DHT22;31489;51.404;5.474;2022-10-16T00:59:01;16.70;73.30
45785;DHT22;31489;51.404;5.474;2022-10-16T01:01:28;16.70;73.50
45785;DHT22;31489;51.404;5.474;2022-10-16T01:03:54;16.70;73.50
45785;DHT22;31489;51.404;5.474;2022-10-16T01:08:55;16.60;73.40
45785;DHT22;31489;51.404;5.474;2022-10-16T01:11:30;16.60;73.40
45785;DHT22;31489;51.404;5.474;2022-10-16T01:14:02;16.60;73.40
45785;DHT22;31489;51.404;5.474;2022-10-16T01:17:07;16.60;73.60
45785;DHT22;31489;51.404;5.474;2022-10-16T01:19:48;16.60;73.80
45785;DHT22;31489;51.404;5.474;2022-10-16T01:22:16;16.60;73.60
45785;DHT22;31489;51.404;5.474;2022-10-16T01:24:47;16.60;73.50
45785;DHT22;31489;51.404;5.474;2022-10-16T01:27:32;16.50;73.70
45785;DHT22;31489;51.404;5.474;2022-10-16T01:30:23;16.50;73.50
45785;DHT22;31489;51.404;5.474;2022-10-16T01:33:01;16.50;73.60
45785;DHT22;31489;51.404;5.474;2022-10-16T01:35:40;16.40;73.50
45785;DHT22;31489;51.404;5.474;2022-10-16T01:40:39;16.40;73.80
45785;DHT22;31489;51.404;5.474;2022-10-16T01:43:10;16.40;74.00
45785;DHT22;31489;51.404;5.474;2022-10-16T01:45:38;16.40;73.90
45785;DHT22;31489;51.404;5.474;2022-10-16T01:48:05;16.40;74.00
45785;DHT22;31489;51.404;5.474;2022-10-16T01:50:36;16.40;74.10
45785;DHT22;31489;51.404;5.474;2022-10-16T01:53:04;16.30;74.40
45785;DHT22;31489;51.404;5.474;2022-10-16T01:55:36;16.40;74.40
45785;DHT22;31489;51.404;5.474;2022-10-16T01:58:05;16.30;74.60
45785;DHT22;31489;51.404;5.474;2022-10-16T02:00:34;16.40;74.60
45785;DHT22;31489;51.404;5.474;2022-10-16T02:03:02;16.40;74.60
45785;DHT22;31489;51.404;5.474;2022-10-16T02:05:36;16.40;74.70
45785;DHT22;31489;51.404;5.474;2022-10-16T02:08:03;16.40;74.70
45785;DHT22;31489;51.404;5.474;2022-10-16T02:10:29;16.40;74.80
45785;DHT22;31489;51.404;5.474;2022-10-16T02:15:27;16.40;74.80
45785;DHT22;31489;51.404;5.474;2022-10-16T02:17:53;16.40;74.70
45785;DHT22;31489;51.404;5.474;2022-10-16T02:20:25;16.40;74.70
45785;DHT22;31489;51.404;5.474;2022-10-16T02:22:53;16.40;74.90
45785;DHT22;31489;51.404;5.474;2022-10-16T02:25:26;16.40;74.70
45785;DHT22;31489;51.404;5.474;2022-10-16T02:28:00;16.40;74.80
45785;DHT22;31489;51.404;5.474;2022-10-16T02:30:37;16.40;74.70
45785;DHT22;31489;51.404;5.474;2022-10-16T02:33:08;16.40;74.90
45785;DHT22;31489;51.404;5.474;2022-10-16T02:35:35;16.40;74.90
45785;DHT22;31489;51.404;5.474;2022-10-16T02:38:02;16.40;74.70
45785;DHT22;31489;51.404;5.474;2022-10-16T02:40:28;16.40;74.70
45785;DHT22;31489;51.404;5.474;2022-10-16T02:42:55;16.40;74.60
45785;DHT22;31489;51.404;5.474;2022-10-16T02:45:23;16.40;74.70
45785;DHT22;31489;51.404;5.474;2022-10-16T02:47:49;16.40;75.50
45785;DHT22;31489;51.404;5.474;2022-10-16T02:50:15;16.40;74.80
45785;DHT22;31489;51.404;5.474;2022-10-16T02:52:40;16.40;74.80
45785;DHT22;31489;51.404;5.474;2022-10-16T02:55:06;16.40;74.80
45785;DHT22;31489;51.404;5.474;2022-10-16T02:57:32;16.30;74.80
45785;DHT22;31489;51.404;5.474;2022-10-16T02:59:58;16.30;74.80
45785;DHT22;31489;51.404;5.474;2022-10-16T03:02:24;16.30;74.90
45785;DHT22;31489;51.404;5.474;2022-10-16T03:04:49;16.30;74.90
45785;DHT22;31489;51.404;5.474;2022-10-16T03:07:15;16.30;74.90
45785;DHT22;31489;51.404;5.474;2022-10-16T03:09:41;16.30;75.00
45785;DHT22;31489;51.404;5.474;2022-10-16T03:12:06;16.30;75.00
45785;DHT22;31489;51.404;5.474;2022-10-16T03:14:33;16.30;75.10
45785;DHT22;31489;51.404;5.474;2022-10-16T03:16:59;16.30;75.00
45785;DHT22;31489;51.404;5.474;2022-10-16T03:19:24;16.30;75.10
45785;DHT22;31489;51.404;5.474;2022-10-16T03:21:50;16.30;75.20
45785;DHT22;31489;51.404;5.474;2022-10-16T03:24:15;16.30;75.30
45785;DHT22;31489;51.404;5.474;2022-10-16T03:26:41;16.30;75.30
45785;DHT22;31489;51.404;5.474;2022-10-16T03:29:07;16.30;75.30
45785;DHT22;31489;51.404;5.474;2022-10-16T03:31:33;16.30;75.40
45785;DHT22;31489;51.404;5.474;2022-10-16T03:33:58;16.30;75.40
45785;DHT22;31489;51.404;5.474;2022-10-16T03:36:24;16.30;75.50
45785;DHT22;31489;51.404;5.474;2022-10-16T03:38:49;16.30;75.60
45785;DHT22;31489;51.404;5.474;2022-10-16T03:41:15;16.30;75.60
45785;DHT22;31489;51.404;5.474;2022-10-16T03:43:40;16.30;75.60
45785;DHT22;31489;51.404;5.474;2022-10-16T03:46:06;16.30;75.60
45785;DHT22;31489;51.404;5.474;2022-10-16T03:48:32;16.30;75.60
45785;DHT22;31489;51.404;5.474;2022-10-16T03:50:57;16.30;75.70
45785;DHT22;31489;51.404;5.474;2022-10-16T03:53:23;16.30;75.70
45785;DHT22;31489;51.404;5.474;2022-10-16T03:55:49;16.30;75.70
45785;DHT22;31489;51.404;5.474;2022-10-16T03:58:14;16.30;75.80
45785;DHT22;31489;51.404;5.474;2022-10-16T04:00:42;16.30;75.90
45785;DHT22;31489;51.404;5.474;2022-10-16T04:03:08;16.30;76.00
45785;DHT22;31489;51.404;5.474;2022-10-16T04:05:33;16.30;76.10
45785;DHT22;31489;51.404;5.474;2022-10-16T04:07:59;16.30;76.10
45785;DHT22;31489;51.404;5.474;2022-10-16T04:10:24;16.30;76.00
45785;DHT22;31489;51.404;5.474;2022-10-16T04:12:50;16.30;76.00
45785;DHT22;31489;51.404;5.474;2022-10-16T04:15:16;16.30;76.10
45785;DHT22;31489;51.404;5.474;2022-10-16T04:17:42;16.30;76.10
45785;DHT22;31489;51.404;5.474;2022-10-16T04:20:08;16.30;76.10
45785;DHT22;31489;51.404;5.474;2022-10-16T04:22:33;16.30;76.10
45785;DHT22;31489;51.404;5.474;2022-10-16T04:24:59;16.30;76.20
45785;DHT22;31489;51.404;5.474;2022-10-16T04:27:27;16.30;76.20
45785;DHT22;31489;51.404;5.474;2022-10-16T04:29:53;16.30;76.30
45785;DHT22;31489;51.404;5.474;2022-10-16T04:32:19;16.30;76.30
45785;DHT22;31489;51.404;5.474;2022-10-16T04:34:44;16.30;76.30
45785;DHT22;31489;51.404;5.474;2022-10-16T04:37:10;16.30;76.30
45785;DHT22;31489;51.404;5.474;2022-10-16T04:39:36;16.30;76.30
45785;DHT22;31489;51.404;5.474;2022-10-16T04:42:01;16.30;76.40
45785;DHT22;31489;51.404;5.474;2022-10-16T04:44:27;16.30;76.40
45785;DHT22;31489;51.404;5.474;2022-10-16T04:46:53;16.30;76.50
45785;DHT22;31489;51.404;5.474;2022-10-16T04:49:18;16.30;76.50
45785;DHT22;31489;51.404;5.474;2022-10-16T04:51:44;16.30;76.50
45785;DHT22;31489;51.404;5.474;2022-10-16T04:54:10;16.30;76.50
45785;DHT22;31489;51.404;5.474;2022-10-16T04:56:35;16.30;76.60
45785;DHT22;31489;51.404;5.474;2022-10-16T04:59:08;16.30;76.60
45785;DHT22;31489;51.404;5.474;2022-10-16T05:01:34;16.30;76.70
45785;DHT22;31489;51.404;5.474;2022-10-16T05:04:00;16.30;76.80
45785;DHT22;31489;51.404;5.474;2022-10-16T05:06:26;16.30;76.80
45785;DHT22;31489;51.404;5.474;2022-10-16T05:08:51;16.30;76.80
45785;DHT22;31489;51.404;5.474;2022-10-16T05:11:17;16.30;76.80
45785;DHT22;31489;51.404;5.474;2022-10-16T05:13:42;16.30;76.80
45785;DHT22;31489;51.404;5.474;2022-10-16T05:16:08;16.30;76.90
45785;DHT22;31489;51.404;5.474;2022-10-16T05:18:33;16.30;77.00
45785;DHT22;31489;51.404;5.474;2022-10-16T05:20:59;16.30;76.90
45785;DHT22;31489;51.404;5.474;2022-10-16T05:23:24;16.30;77.10
45785;DHT22;31489;51.404;5.474;2022-10-16T05:25:57;16.30;77.10
45785;DHT22;31489;51.404;5.474;2022-10-16T05:28:26;16.30;77.30
45785;DHT22;31489;51.404;5.474;2022-10-16T05:30:53;16.30;77.20
45785;DHT22;31489;51.404;5.474;2022-10-16T05:33:23;16.30;77.20
45785;DHT22;31489;51.404;5.474;2022-10-16T05:35:49;16.30;77.30
45785;DHT22;31489;51.404;5.474;2022-10-16T05:38:18;16.30;77.30
45785;DHT22;31489;51.404;5.474;2022-10-16T05:40:50;16.30;77.30
45785;DHT22;31489;51.404;5.474;2022-10-16T05:43:17;16.30;77.50
45785;DHT22;31489;51.404;5.474;2022-10-16T05:45:42;16.30;77.30
45785;DHT22;31489;51.404;5.474;2022-10-16T05:48:08;16.30;77.90
45785;DHT22;31489;51.404;5.474;2022-10-16T05:50:33;16.30;77.20
45785;DHT22;31489;51.404;5.474;2022-10-16T05:52:59;16.30;77.30
45785;DHT22;31489;51.404;5.474;2022-10-16T05:55:25;16.20;77.30
45785;DHT22;31489;51.404;5.474;2022-10-16T05:57:53;16.20;77.30
45785;DHT22;31489;51.404;5.474;2022-10-16T06:00:18;16.20;77.30
45785;DHT22;31489;51.404;5.474;2022-10-16T06:02:44;16.20;77.40
45785;DHT22;31489;51.404;5.474;2022-10-16T06:05:10;16.20;77.40
45785;DHT22;31489;51.404;5.474;2022-10-16T06:07:35;16.20;77.30
45785;DHT22;31489;51.404;5.474;2022-10-16T06:10:02;16.20;77.50
45785;DHT22;31489;51.404;5.474;2022-10-16T06:12:28;16.20;77.50
45785;DHT22;31489;51.404;5.474;2022-10-16T06:14:53;16.20;77.50
45785;DHT22;31489;51.404;5.474;2022-10-16T06:17:19;16.20;77.50
45785;DHT22;31489;51.404;5.474;2022-10-16T06:19:44;16.20;77.60
45785;DHT22;31489;51.404;5.474;2022-10-16T06:22:10;16.10;77.60
45785;DHT22;31489;51.404;5.474;2022-10-16T06:24:35;16.10;77.70
45785;DHT22;31489;51.404;5.474;2022-10-16T06:27:02;16.10;77.60
45785;DHT22;31489;51.404;5.474;2022-10-16T06:29:28;16.10;77.70
45785;DHT22;31489;51.404;5.474;2022-10-16T06:31:53;16.10;77.70
45785;DHT22;31489;51.404;5.474;2022-10-16T06:34:19;16.10;77.80
45785;DHT22;31489;51.404;5.474;2022-10-16T06:36:44;16.10;77.80
45785;DHT22;31489;51.404;5.474;2022-10-16T06:39:10;16.10;77.80
45785;DHT22;31489;51.404;5.474;2022-10-16T06:41:36;16.10;77.80
45785;DHT22;31489;51.404;5.474;2022-10-16T06:44:05;16.10;77.80
45785;DHT22;31489;51.404;5.474;2022-10-16T06:46:31;16.10;77.90
45785;DHT22;31489;51.404;5.474;2022-10-16T06:48:56;16.10;77.80
45785;DHT22;31489;51.404;5.474;2022-10-16T06:51:23;16.10;77.90
45785;DHT22;31489;51.404;5.474;2022-10-16T06:53:51;16.10;78.00
45785;DHT22;31489;51.404;5.474;2022-10-16T06:56:18;16.10;78.10
45785;DHT22;31489;51.404;5.474;2022-10-16T06:58:45;16.10;78.10
45785;DHT22;31489;51.404;5.474;2022-10-16T07:01:11;16.10;78.10
45785;DHT22;31489;51.404;5.474;2022-10-16T07:03:38;16.10;78.20
45785;DHT22;31489;51.404;5.474;2022-10-16T07:06:05;16.10;78.30
45785;DHT22;31489;51.404;5.474;2022-10-16T07:08:35;16.10;78.30
45785;DHT22;31489;51.404;5.474;2022-10-16T07:11:06;16.10;78.40
45785;DHT22;31489;51.404;5.474;2022-10-16T07:13:39;16.20;78.50
45785;DHT22;31489;51.404;5.474;2022-10-16T07:16:14;16.20;78.70
45785;DHT22;31489;51.404;5.474;2022-10-16T07:18:40;16.20;78.60
45785;DHT22;31489;51.404;5.474;2022-10-16T07:21:10;16.30;78.50
45785;DHT22;31489;51.404;5.474;2022-10-16T07:23:36;16.30;78.50
45785;DHT22;31489;51.404;5.474;2022-10-16T07:26:02;16.30;78.50
45785;DHT22;31489;51.404;5.474;2022-10-16T07:28:28;16.30;78.50
45785;DHT22;31489;51.404;5.474;2022-10-16T07:30:54;16.30;78.40
45785;DHT22;31489;51.404;5.474;2022-10-16T07:33:21;16.40;78.50
45785;DHT22;31489;51.404;5.474;2022-10-16T07:35:51;16.40;78.60
45785;DHT22;31489;51.404;5.474;2022-10-16T07:38:17;16.40;78.70
45785;DHT22;31489;51.404;5.474;2022-10-16T07:40:43;16.40;78.60
45785;DHT22;31489;51.404;5.474;2022-10-16T07:43:08;16.50;78.70
45785;DHT22;31489;51.404;5.474;2022-10-16T07:45:34;16.50;78.80
45785;DHT22;31489;51.404;5.474;2022-10-16T07:47:59;16.50;78.70
45785;DHT22;31489;51.404;5.474;2022-10-16T07:50:25;16.60;78.80
45785;DHT22;31489;51.404;5.474;2022-10-16T07:52:50;16.60;78.80
45785;DHT22;31489;51.404;5.474;2022-10-16T07:55:16;16.60;78.80
45785;DHT22;31489;51.404;5.474;2022-10-16T07:57:41;16.70;78.80
45785;DHT22;31489;51.404;5.474;2022-10-16T08:00:07;16.70;78.80
45785;DHT22;31489;51.404;5.474;2022-10-16T08:02:39;16.70;78.70
45785;DHT22;31489;51.404;5.474;2022-10-16T08:05:05;16.80;78.70
45785;DHT22;31489;51.404;5.474;2022-10-16T08:07:31;16.80;78.80
45785;DHT22;31489;51.404;5.474;2022-10-16T08:09:57;16.90;79.50
45785;DHT22;31489;51.404;5.474;2022-10-16T08:12:24;17.00;78.90
45785;DHT22;31489;51.404;5.474;2022-10-16T08:14:50;17.00;78.70
45785;DHT22;31489;51.404;5.474;2022-10-16T08:17:15;17.10;78.70
45785;DHT22;31489;51.404;5.474;2022-10-16T08:19:47;17.10;78.50
45785;DHT22;31489;51.404;5.474;2022-10-16T08:22:13;17.10;78.30
45785;DHT22;31489;51.404;5.474;2022-10-16T08:24:39;17.20;78.30
45785;DHT22;31489;51.404;5.474;2022-10-16T08:27:05;17.30;78.10
45785;DHT22;31489;51.404;5.474;2022-10-16T08:29:31;17.30;78.00
45785;DHT22;31489;51.404;5.474;2022-10-16T08:31:56;17.40;78.10
45785;DHT22;31489;51.404;5.474;2022-10-16T08:34:22;17.40;78.00
45785;DHT22;31489;51.404;5.474;2022-10-16T08:36:47;17.40;77.70
45785;DHT22;31489;51.404;5.474;2022-10-16T08:39:13;17.50;77.50
45785;DHT22;31489;51.404;5.474;2022-10-16T08:49:43;17.70;76.70
45785;DHT22;31489;51.404;5.474;2022-10-16T08:52:17;17.80;76.70
45785;DHT22;31489;51.404;5.474;2022-10-16T08:54:46;17.80;76.50
45785;DHT22;31489;51.404;5.474;2022-10-16T08:57:20;17.90;76.20
45785;DHT22;31489;51.404;5.474;2022-10-16T08:59:46;17.90;75.90
45785;DHT22;31489;51.404;5.474;2022-10-16T09:02:30;18.00;76.10
45785;DHT22;31489;51.404;5.474;2022-10-16T09:07:37;18.10;75.90
45785;DHT22;31489;51.404;5.474;2022-10-16T09:10:27;18.10;75.50
45785;DHT22;31489;51.404;5.474;2022-10-16T09:15:41;18.20;75.10
45785;DHT22;31489;51.404;5.474;2022-10-16T09:18:20;18.30;75.20
45785;DHT22;31489;51.404;5.474;2022-10-16T09:21:16;18.30;74.70
45785;DHT22;31489;51.404;5.474;2022-10-16T09:23:43;18.40;74.80
45785;DHT22;31489;51.404;5.474;2022-10-16T09:26:13;18.40;74.80
45785;DHT22;31489;51.404;5.474;2022-10-16T09:28:39;18.50;75.00
45785;DHT22;31489;51.404;5.474;2022-10-16T09:31:07;18.60;74.90
45785;DHT22;31489;51.404;5.474;2022-10-16T09:33:35;18.60;75.00
45785;DHT22;31489;51.404;5.474;2022-10-16T09:36:03;18.70;74.80
45785;DHT22;31489;51.404;5.474;2022-10-16T09:38:32;18.80;74.30
45785;DHT22;31489;51.404;5.474;2022-10-16T09:41:13;18.90;74.30
45785;DHT22;31489;51.404;5.474;2022-10-16T09:43:49;18.90;73.70
45785;DHT22;31489;51.404;5.474;2022-10-16T09:46:35;19.00;73.40
45785;DHT22;31489;51.404;5.474;2022-10-16T09:49:04;19.10;73.20
45785;DHT22;31489;51.404;5.474;2022-10-16T09:51:35;19.20;73.40
45785;DHT22;31489;51.404;5.474;2022-10-16T09:54:13;19.30;73.20
45785;DHT22;31489;51.404;5.474;2022-10-16T09:56:39;19.50;73.60
45785;DHT22;31489;51.404;5.474;2022-10-16T09:59:24;19.70;73.90
45785;DHT22;31489;51.404;5.474;2022-10-16T10:01:53;19.90;72.20
45785;DHT22;31489;51.404;5.474;2022-10-16T10:04:20;20.10;72.90
45785;DHT22;31489;51.404;5.474;2022-10-16T10:06:53;20.30;71.80
45785;DHT22;31489;51.404;5.474;2022-10-16T10:09:28;20.50;70.00
45785;DHT22;31489;51.404;5.474;2022-10-16T10:11:56;20.80;70.10
45785;DHT22;31489;51.404;5.474;2022-10-16T10:16:51;21.40;70.60
45785;DHT22;31489;51.404;5.474;2022-10-16T10:19:20;21.80;70.70
45785;DHT22;31489;51.404;5.474;2022-10-16T10:21:46;22.20;69.90
45785;DHT22;31489;51.404;5.474;2022-10-16T10:24:14;22.70;68.00
45785;DHT22;31489;51.404;5.474;2022-10-16T10:27:03;23.00;66.40
45785;DHT22;31489;51.404;5.474;2022-10-16T10:29:46;23.40;65.30
45785;DHT22;31489;51.404;5.474;2022-10-16T10:36:05;24.40;64.50
45785;DHT22;31489;51.404;5.474;2022-10-16T10:38:50;25.20;63.10
45785;DHT22;31489;51.404;5.474;2022-10-16T10:47:37;26.50;59.20
45785;DHT22;31489;51.404;5.474;2022-10-16T10:58:14;27.10;54.50
45785;DHT22;31489;51.404;5.474;2022-10-16T11:06:19;27.30;54.40
45785;DHT22;31489;51.404;5.474;2022-10-16T11:09:09;27.30;52.90
45785;DHT22;31489;51.404;5.474;2022-10-16T11:12:12;27.30;51.80
45785;DHT22;31489;51.404;5.474;2022-10-16T11:14:53;27.30;53.10
45785;DHT22;31489;51.404;5.474;2022-10-16T11:17:41;27.40;53.80
45785;DHT22;31489;51.404;5.474;2022-10-16T11:20:24;27.40;51.60
45785;DHT22;31489;51.404;5.474;2022-10-16T11:25:35;27.20;51.50
45785;DHT22;31489;51.404;5.474;2022-10-16T11:28:14;27.10;51.20
45785;DHT22;31489;51.404;5.474;2022-10-16T11:30:49;27.00;50.70
45785;DHT22;31489;51.404;5.474;2022-10-16T11:33:23;27.00;51.90
45785;DHT22;31489;51.404;5.474;2022-10-16T11:36:11;27.10;51.50
45785;DHT22;31489;51.404;5.474;2022-10-16T11:38:44;27.40;51.40
45785;DHT22;31489;51.404;5.474;2022-10-16T11:43:48;28.00;50.50
45785;DHT22;31489;51.404;5.474;2022-10-16T11:46:20;28.30;50.10
45785;DHT22;31489;51.404;5.474;2022-10-16T11:49:03;28.60;50.60
45785;DHT22;31489;51.404;5.474;2022-10-16T11:51:39;28.90;49.90
45785;DHT22;31489;51.404;5.474;2022-10-16T11:54:28;29.30;48.80
45785;DHT22;31489;51.404;5.474;2022-10-16T11:57:01;29.50;48.50
45785;DHT22;31489;51.404;5.474;2022-10-16T11:59:41;29.80;48.10
45785;DHT22;31489;51.404;5.474;2022-10-16T12:02:34;30.10;46.60
45785;DHT22;31489;51.404;5.474;2022-10-16T12:10:24;30.70;44.90
45785;DHT22;31489;51.404;5.474;2022-10-16T12:12:51;30.90;45.20
45785;DHT22;31489;51.404;5.474;2022-10-16T12:15:23;31.00;45.30
45785;DHT22;31489;51.404;5.474;2022-10-16T12:17:49;31.10;43.60
45785;DHT22;31489;51.404;5.474;2022-10-16T12:20:28;31.20;44.40
45785;DHT22;31489;51.404;5.474;2022-10-16T12:23:01;31.30;42.80
45785;DHT22;31489;51.404;5.474;2022-10-16T12:25:31;31.40;43.80
45785;DHT22;31489;51.404;5.474;2022-10-16T12:30:30;31.60;42.20
45785;DHT22;31489;51.404;5.474;2022-10-16T12:33:19;31.70;42.20
45785;DHT22;31489;51.404;5.474;2022-10-16T12:35:46;31.70;42.10
45785;DHT22;31489;51.404;5.474;2022-10-16T12:41:08;31.70;41.00
45785;DHT22;31489;51.404;5.474;2022-10-16T12:43:43;31.70;41.20
45785;DHT22;31489;51.404;5.474;2022-10-16T12:48:35;31.40;40.80
45785;DHT22;31489;51.404;5.474;2022-10-16T12:51:24;31.30;40.80
45785;DHT22;31489;51.404;5.474;2022-10-16T12:59:21;30.80;41.80
45785;DHT22;31489;51.404;5.474;2022-10-16T13:10:35;29.90;41.30
45785;DHT22;31489;51.404;5.474;2022-10-16T13:13:23;29.70;42.00
45785;DHT22;31489;51.404;5.474;2022-10-16T13:18:48;29.30;41.50
45785;DHT22;31489;51.404;5.474;2022-10-16T13:21:38;29.10;41.60
45785;DHT22;31489;51.404;5.474;2022-10-16T13:26:55;28.60;42.30
45785;DHT22;31489;51.404;5.474;2022-10-16T13:29:22;28.40;42.30
45785;DHT22;31489;51.404;5.474;2022-10-16T13:31:48;28.20;44.10
45785;DHT22;31489;51.404;5.474;2022-10-16T13:34:17;28.00;44.10
45785;DHT22;31489;51.404;5.474;2022-10-16T13:36:48;27.90;43.70
45785;DHT22;31489;51.404;5.474;2022-10-16T13:39:28;27.70;43.50
45785;DHT22;31489;51.404;5.474;2022-10-16T13:42:04;27.50;44.00
45785;DHT22;31489;51.404;5.474;2022-10-16T13:44:42;27.30;43.60
45785;DHT22;31489;51.404;5.474;2022-10-16T13:47:19;27.20;44.10
45785;DHT22;31489;51.404;5.474;2022-10-16T13:49:46;27.10;44.30
45785;DHT22;31489;51.404;5.474;2022-10-16T13:52:18;26.90;44.30
45785;DHT22;31489;51.404;5.474;2022-10-16T13:54:44;26.80;44.90
45785;DHT22;31489;51.404;5.474;2022-10-16T13:57:15;26.70;45.40
45785;DHT22;31489;51.404;5.474;2022-10-16T13:59:41;26.50;46.00
45785;DHT22;31489;51.404;5.474;2022-10-16T14:02:27;26.40;45.50
45785;DHT22;31489;51.404;5.474;2022-10-16T14:04:54;26.30;46.70
45785;DHT22;31489;51.404;5.474;2022-10-16T14:07:32;26.20;46.30
45785;DHT22;31489;51.404;5.474;2022-10-16T14:10:25;26.00;45.80
45785;DHT22;31489;51.404;5.474;2022-10-16T14:13:31;25.90;47.10
45785;DHT22;31489;51.404;5.474;2022-10-16T14:16:00;25.80;47.40
45785;DHT22;31489;51.404;5.474;2022-10-16T14:18:28;25.70;47.20
45785;DHT22;31489;51.404;5.474;2022-10-16T14:20:54;25.60;47.50
45785;DHT22;31489;51.404;5.474;2022-10-16T14:23:29;25.50;48.10
45785;DHT22;31489;51.404;5.474;2022-10-16T14:28:39;25.40;48.90
45785;DHT22;31489;51.404;5.474;2022-10-16T14:31:27;25.30;48.50
45785;DHT22;31489;51.404;5.474;2022-10-16T14:33:53;25.20;48.80
45785;DHT22;31489;51.404;5.474;2022-10-16T14:36:19;25.20;48.90
45785;DHT22;31489;51.404;5.474;2022-10-16T14:41:24;25.10;49.40
45785;DHT22;31489;51.404;5.474;2022-10-16T14:43:53;25.10;49.90
45785;DHT22;31489;51.404;5.474;2022-10-16T14:46:27;25.00;50.30
45785;DHT22;31489;51.404;5.474;2022-10-16T14:49:01;24.90;50.20
45785;DHT22;31489;51.404;5.474;2022-10-16T14:51:27;24.90;50.20
45785;DHT22;31489;51.404;5.474;2022-10-16T14:53:53;24.90;50.50
45785;DHT22;31489;51.404;5.474;2022-10-16T14:56:24;24.80;50.40
45785;DHT22;31489;51.404;5.474;2022-10-16T14:58:50;24.80;50.10
45785;DHT22;31489;51.404;5.474;2022-10-16T15:01:16;24.70;50.50
45785;DHT22;31489;51.404;5.474;2022-10-16T15:03:43;24.70;51.40
45785;DHT22;31489;51.404;5.474;2022-10-16T15:06:11;24.70;50.60
45785;DHT22;31489;51.404;5.474;2022-10-16T15:08:37;24.60;51.60
45785;DHT22;31489;51.404;5.474;2022-10-16T15:11:03;24.60;51.50
45785;DHT22;31489;51.404;5.474;2022-10-16T15:13:29;24.60;52.30
45785;DHT22;31489;51.404;5.474;2022-10-16T15:15:54;24.50;51.90
45785;DHT22;31489;51.404;5.474;2022-10-16T15:18:20;24.50;52.80
45785;DHT22;31489;51.404;5.474;2022-10-16T15:20:49;24.40;52.70
45785;DHT22;31489;51.404;5.474;2022-10-16T15:23:20;24.40;52.50
45785;DHT22;31489;51.404;5.474;2022-10-16T15:25:52;24.40;53.30
45785;DHT22;31489;51.404;5.474;2022-10-16T15:28:18;24.30;53.20
45785;DHT22;31489;51.404;5.474;2022-10-16T15:30:45;24.30;53.30
45785;DHT22;31489;51.404;5.474;2022-10-16T15:33:17;24.20;53.60
45785;DHT22;31489;51.404;5.474;2022-10-16T15:35:46;24.20;53.80
45785;DHT22;31489;51.404;5.474;2022-10-16T15:38:13;24.10;53.70
45785;DHT22;31489;51.404;5.474;2022-10-16T15:40:39;24.10;53.70
45785;DHT22;31489;51.404;5.474;2022-10-16T15:43:05;24.00;53.90
45785;DHT22;31489;51.404;5.474;2022-10-16T15:45:31;24.00;54.20
45785;DHT22;31489;51.404;5.474;2022-10-16T15:47:56;23.90;54.30
45785;DHT22;31489;51.404;5.474;2022-10-16T15:50:22;23.90;54.60
45785;DHT22;31489;51.404;5.474;2022-10-16T15:52:48;23.80;54.70
45785;DHT22;31489;51.404;5.474;2022-10-16T15:55:14;23.70;54.80
45785;DHT22;31489;51.404;5.474;2022-10-16T15:57:41;23.70;55.00
45785;DHT22;31489;51.404;5.474;2022-10-16T16:00:13;23.60;55.20
45785;DHT22;31489;51.404;5.474;2022-10-16T16:02:41;23.50;55.60
45785;DHT22;31489;51.404;5.474;2022-10-16T16:05:08;23.50;55.70
45785;DHT22;31489;51.404;5.474;2022-10-16T16:07:35;23.50;55.70
45785;DHT22;31489;51.404;5.474;2022-10-16T16:10:01;23.40;55.90
45785;DHT22;31489;51.404;5.474;2022-10-16T16:12:27;23.30;56.10
45785;DHT22;31489;51.404;5.474;2022-10-16T16:14:52;23.30;56.30
45785;DHT22;31489;51.404;5.474;2022-10-16T16:17:18;23.20;56.40
45785;DHT22;31489;51.404;5.474;2022-10-16T16:19:45;23.20;56.60
45785;DHT22;31489;51.404;5.474;2022-10-16T16:22:10;23.20;56.80
45785;DHT22;31489;51.404;5.474;2022-10-16T16:24:36;23.00;56.80
45785;DHT22;31489;51.404;5.474;2022-10-16T16:27:01;23.00;57.10
45785;DHT22;31489;51.404;5.474;2022-10-16T16:29:27;22.90;57.20
45785;DHT22;31489;51.404;5.474;2022-10-16T16:31:52;22.80;57.30
45785;DHT22;31489;51.404;5.474;2022-10-16T16:34:23;22.80;57.60
45785;DHT22;31489;51.404;5.474;2022-10-16T16:36:49;22.70;57.80
45785;DHT22;31489;51.404;5.474;2022-10-16T16:39:15;22.70;58.00
45785;DHT22;31489;51.404;5.474;2022-10-16T16:41:41;22.60;58.10
45785;DHT22;31489;51.404;5.474;2022-10-16T16:44:08;22.50;58.10
45785;DHT22;31489;51.404;5.474;2022-10-16T16:46:35;22.50;58.40
45785;DHT22;31489;51.404;5.474;2022-10-16T16:49:01;22.40;58.50
45785;DHT22;31489;51.404;5.474;2022-10-16T16:51:28;22.30;58.70
45785;DHT22;31489;51.404;5.474;2022-10-16T16:53:54;22.30;58.90
45785;DHT22;31489;51.404;5.474;2022-10-16T16:56:21;22.20;59.00
45785;DHT22;31489;51.404;5.474;2022-10-16T16:58:48;22.20;59.20
45785;DHT22;31489;51.404;5.474;2022-10-16T17:01:14;22.20;59.30
45785;DHT22;31489;51.404;5.474;2022-10-16T17:03:42;22.10;59.40
45785;DHT22;31489;51.404;5.474;2022-10-16T17:06:10;22.10;59.60
45785;DHT22;31489;51.404;5.474;2022-10-16T17:08:36;22.00;59.70
45785;DHT22;31489;51.404;5.474;2022-10-16T17:11:03;22.00;59.80
45785;DHT22;31489;51.404;5.474;2022-10-16T17:13:31;22.00;59.90
45785;DHT22;31489;51.404;5.474;2022-10-16T17:15:59;22.00;60.00
45785;DHT22;31489;51.404;5.474;2022-10-16T17:18:25;21.90;60.00
45785;DHT22;31489;51.404;5.474;2022-10-16T17:20:50;21.90;60.00